Cotes De La Manche — FQBE — position and weather

sailwx.info

Track history (hours):
 
Tides and Currents Weather Stations Pressure Air Temp Water Temp Dewpoint Dewpoint Depression Visibility Wind Speed Wind Dir Waves Ship Positions

Cotes De La Manche

Last reported at 2016-Sep-26 02:34 UTC. Time now 2016-Sep-26 05:26 UTC.
Position N 49°26' E 000°19'.

Length 25 m; draft 3.7 m.

Type: Other ship. MMSI: 227091000.

Date/timePositionNaut miles runAvg speedWind from/ knotsBaromVisibWave heightAir tempDewpointWater temp
2016-Sep-26 02:34N 49°26' E 000°19'0 0.0
2016-Sep-26 01:34N 49°26' E 000°19'0 0.0
2016-Sep-26 00:33N 49°26' E 000°19'0 0.0
2016-Sep-25 21:34N 49°26' E 000°19'0 0.0
2016-Sep-25 17:34N 49°26' E 000°20'0 0.0
2016-Sep-25 16:34N 49°26' E 000°20'0 0.0
2016-Sep-25 15:34N 49°26' E 000°20'0 0.0
2016-Sep-25 14:34N 49°26' E 000°20'0 0.0
2016-Sep-25 12:33N 49°26' E 000°20'0 0.0
2016-Sep-25 11:33N 49°26' E 000°19'0 0.0
2016-Sep-25 10:33N 49°26' E 000°19'0 0.0
2016-Sep-25 09:34N 49°26' E 000°19'0 0.0
2016-Sep-25 07:34N 49°26' E 000°20'12 4.1
2016-Sep-25 04:34N 49°23' E 000°01'0 0.0
2016-Sep-25 00:33N 49°23' E 000°01'0 0.0
2016-Sep-24 22:33N 49°23' E 000°01'0 0.0
2016-Sep-24 21:34N 49°23' E 000°01'0 0.0
2016-Sep-24 19:34N 49°23' E 000°01'0 0.0
2016-Sep-24 18:34N 49°23' E 000°01'0 0.0
2016-Sep-24 17:34N 49°23' E 000°01'9 9.4
2016-Sep-24 16:33N 49°21' W 000°13'4 1.8
2016-Sep-24 14:33N 49°21' W 000°18'0 0.0
2016-Sep-24 12:34N 49°21' W 000°18'0 0.0
2016-Sep-24 10:34N 49°21' W 000°18'0 0.0
2016-Sep-24 09:33N 49°21' W 000°18'0 0.0
2016-Sep-24 03:34N 49°21' W 000°18'0 0.0
2016-Sep-24 02:34N 49°21' W 000°18'0 0.0
2016-Sep-24 01:34N 49°21' W 000°18'0 0.0
2016-Sep-24 00:34N 49°21' W 000°18'0 0.0
2016-Sep-23 19:34N 49°21' W 000°18'2 0.9
2016-Sep-23 17:33N 49°22' W 000°16'1110.5
2016-Sep-23 16:34N 49°27' W 000°02'3 3.2
2016-Sep-23 15:34N 49°29' E 000°02'0 0.0
2016-Sep-23 13:34N 49°29' E 000°02'0 0.0
2016-Sep-23 09:34N 49°29' E 000°02'0 0.0
2016-Sep-23 06:34N 49°29' E 000°02'0 0.0
2016-Sep-23 04:34N 49°29' E 000°02'0 0.0
2016-Sep-23 03:34N 49°29' E 000°02'0 0.0
2016-Sep-23 02:34N 49°29' E 000°02'0 0.0
2016-Sep-23 01:34N 49°29' E 000°02'0 0.0
2016-Sep-23 00:34N 49°29' E 000°02'0 0.0
2016-Sep-22 23:34N 49°29' E 000°02'0 0.0
2016-Sep-22 20:33N 49°29' E 000°02'4 0.5
2016-Sep-22 12:34N 49°29' E 000°07'0 0.0
2016-Sep-22 04:34N 49°29' E 000°07'0 0.0
2016-Sep-22 03:34N 49°29' E 000°07'0 0.0
2016-Sep-22 00:34N 49°29' E 000°07'0 0.0
2016-Sep-21 23:34N 49°29' E 000°07'0 0.0
2016-Sep-21 22:34N 49°29' E 000°07'0 0.0
2016-Sep-21 19:34N 49°29' E 000°07'3 0.9
2016-Sep-21 16:34N 49°30' E 000°03'11 1.6
2016-Sep-21 09:32N 49°29' W 000°14'0 0.0
2016-Sep-21 08:32N 49°29' W 000°14'0 0.0
2016-Sep-21 05:32N 49°29' W 000°14'0 0.0
2016-Sep-21 03:32N 49°29' W 000°14'0 0.0
2016-Sep-21 02:32N 49°29' W 000°14'7 0.8
2016-Sep-20 17:33N 49°29' W 000°03'3 0.9
2016-Sep-20 14:33N 49°29' E 000°02'0 0.0
2016-Sep-20 13:33N 49°29' E 000°02'0 0.0
2016-Sep-20 10:33N 49°29' E 000°02'0 0.0
2016-Sep-20 08:33N 49°29' E 000°02'0 0.0
2016-Sep-20 07:33N 49°29' E 000°02'0 0.0
2016-Sep-20 06:33N 49°29' E 000°02'0 0.0
2016-Sep-20 02:33N 49°29' E 000°02'0 0.0
2016-Sep-19 23:33N 49°29' E 000°02'0 0.0
2016-Sep-19 19:33N 49°29' E 000°02'0 0.0
2016-Sep-19 18:33N 49°29' E 000°02'0 0.0
2016-Sep-19 16:33N 49°29' E 000°02'0 0.0
2016-Sep-19 14:33N 49°29' E 000°02'3 3.4
2016-Sep-19 13:33N 49°29' E 000°07'0 0.5
2016-Sep-19 12:33N 49°29' E 000°07'0 0.0
2016-Sep-19 11:33N 49°29' E 000°07'0 0.0
2016-Sep-19 09:33N 49°29' E 000°07'0 0.0
2016-Sep-19 07:33N 49°29' E 000°07'0 0.0
2016-Sep-19 06:33N 49°29' E 000°07'0 0.0
2016-Sep-19 03:33N 49°29' E 000°07'0 0.0
2016-Sep-19 02:33N 49°29' E 000°07'0 0.0
2016-Sep-19 00:33N 49°29' E 000°07'0 0.0
2016-Sep-18 19:33N 49°29' E 000°07'0 0.0
2016-Sep-18 15:33N 49°29' E 000°07'0 0.0
2016-Sep-18 14:33N 49°29' E 000°07'23 5.9
2016-Sep-18 10:33N 49°34' W 000°28'180 8.6
2016-Sep-17 13:34N 48°20' W 004°37'7 6.6
2016-Sep-17 12:34N 48°23' W 004°29'0 0.0
2016-Sep-17 10:33N 48°23' W 004°29'0 0.0
2016-Sep-17 09:33N 48°23' W 004°29'0 0.0
2016-Sep-17 08:33N 48°23' W 004°29'0 0.0
2016-Sep-17 07:34N 48°23' W 004°29'0 0.0
2016-Sep-17 05:33N 48°23' W 004°29'0 0.0
2016-Sep-17 04:33N 48°23' W 004°29'0 0.0
2016-Sep-17 00:33N 48°23' W 004°29'0 0.0
2016-Sep-16 17:33N 48°23' W 004°29'0 0.0
2016-Sep-16 15:33N 48°23' W 004°29'12 3.8
2016-Sep-16 12:33N 48°13' W 004°37'  
Track history (hours):
 
Tides and Currents Weather Stations Pressure Air Temp Water Temp Dewpoint Dewpoint Depression Visibility Wind Speed Wind Dir Waves Ship Positions

Cotes De La Manche

Last reported at 2016-Sep-26 02:34 UTC. Time now 2016-Sep-26 05:26 UTC.
Position N 49°26' E 000°19'.

Length 25 m; draft 3.7 m.

Type: Other ship. MMSI: 227091000.

Date/timePositionNaut miles runAvg speedWind from/ knotsBaromVisibWave heightAir tempDewpointWater temp
2016-Sep-26 02:34N 49°26' E 000°19'0 0.0
2016-Sep-26 01:34N 49°26' E 000°19'0 0.0
2016-Sep-26 00:33N 49°26' E 000°19'0 0.0
2016-Sep-25 21:34N 49°26' E 000°19'0 0.0
2016-Sep-25 17:34N 49°26' E 000°20'0 0.0
2016-Sep-25 16:34N 49°26' E 000°20'0 0.0
2016-Sep-25 15:34N 49°26' E 000°20'0 0.0
2016-Sep-25 14:34N 49°26' E 000°20'0 0.0
2016-Sep-25 12:33N 49°26' E 000°20'0 0.0
2016-Sep-25 11:33N 49°26' E 000°19'0 0.0
2016-Sep-25 10:33N 49°26' E 000°19'0 0.0
2016-Sep-25 09:34N 49°26' E 000°19'0 0.0
2016-Sep-25 07:34N 49°26' E 000°20'12 4.1
2016-Sep-25 04:34N 49°23' E 000°01'0 0.0
2016-Sep-25 00:33N 49°23' E 000°01'0 0.0
2016-Sep-24 22:33N 49°23' E 000°01'0 0.0
2016-Sep-24 21:34N 49°23' E 000°01'0 0.0
2016-Sep-24 19:34N 49°23' E 000°01'0 0.0
2016-Sep-24 18:34N 49°23' E 000°01'0 0.0
2016-Sep-24 17:34N 49°23' E 000°01'9 9.4
2016-Sep-24 16:33N 49°21' W 000°13'4 1.8
2016-Sep-24 14:33N 49°21' W 000°18'0 0.0
2016-Sep-24 12:34N 49°21' W 000°18'0 0.0
2016-Sep-24 10:34N 49°21' W 000°18'0 0.0
2016-Sep-24 09:33N 49°21' W 000°18'0 0.0
2016-Sep-24 03:34N 49°21' W 000°18'0 0.0
2016-Sep-24 02:34N 49°21' W 000°18'0 0.0
2016-Sep-24 01:34N 49°21' W 000°18'0 0.0
2016-Sep-24 00:34N 49°21' W 000°18'0 0.0
2016-Sep-23 19:34N 49°21' W 000°18'2 0.9
2016-Sep-23 17:33N 49°22' W 000°16'1110.5
2016-Sep-23 16:34N 49°27' W 000°02'3 3.2
2016-Sep-23 15:34N 49°29' E 000°02'0 0.0
2016-Sep-23 13:34N 49°29' E 000°02'0 0.0
2016-Sep-23 09:34N 49°29' E 000°02'0 0.0
2016-Sep-23 06:34N 49°29' E 000°02'0 0.0
2016-Sep-23 04:34N 49°29' E 000°02'0 0.0
2016-Sep-23 03:34N 49°29' E 000°02'0 0.0
2016-Sep-23 02:34N 49°29' E 000°02'0 0.0
2016-Sep-23 01:34N 49°29' E 000°02'0 0.0
2016-Sep-23 00:34N 49°29' E 000°02'0 0.0
2016-Sep-22 23:34N 49°29' E 000°02'0 0.0
2016-Sep-22 20:33N 49°29' E 000°02'4 0.5
2016-Sep-22 12:34N 49°29' E 000°07'0 0.0
2016-Sep-22 04:34N 49°29' E 000°07'0 0.0
2016-Sep-22 03:34N 49°29' E 000°07'0 0.0
2016-Sep-22 00:34N 49°29' E 000°07'0 0.0
2016-Sep-21 23:34N 49°29' E 000°07'0 0.0
2016-Sep-21 22:34N 49°29' E 000°07'0 0.0
2016-Sep-21 19:34N 49°29' E 000°07'3 0.9
2016-Sep-21 16:34N 49°30' E 000°03'11 1.6
2016-Sep-21 09:32N 49°29' W 000°14'0 0.0
2016-Sep-21 08:32N 49°29' W 000°14'0 0.0
2016-Sep-21 05:32N 49°29' W 000°14'0 0.0
2016-Sep-21 03:32N 49°29' W 000°14'0 0.0
2016-Sep-21 02:32N 49°29' W 000°14'7 0.8
2016-Sep-20 17:33N 49°29' W 000°03'3 0.9
2016-Sep-20 14:33N 49°29' E 000°02'0 0.0
2016-Sep-20 13:33N 49°29' E 000°02'0 0.0
2016-Sep-20 10:33N 49°29' E 000°02'0 0.0
2016-Sep-20 08:33N 49°29' E 000°02'0 0.0
2016-Sep-20 07:33N 49°29' E 000°02'0 0.0
2016-Sep-20 06:33N 49°29' E 000°02'0 0.0
2016-Sep-20 02:33N 49°29' E 000°02'0 0.0
2016-Sep-19 23:33N 49°29' E 000°02'0 0.0
2016-Sep-19 19:33N 49°29' E 000°02'0 0.0
2016-Sep-19 18:33N 49°29' E 000°02'0 0.0
2016-Sep-19 16:33N 49°29' E 000°02'0 0.0
2016-Sep-19 14:33N 49°29' E 000°02'3 3.4
2016-Sep-19 13:33N 49°29' E 000°07'0 0.5
2016-Sep-19 12:33N 49°29' E 000°07'0 0.0
2016-Sep-19 11:33N 49°29' E 000°07'0 0.0
2016-Sep-19 09:33N 49°29' E 000°07'0 0.0
2016-Sep-19 07:33N 49°29' E 000°07'0 0.0
2016-Sep-19 06:33N 49°29' E 000°07'0 0.0
2016-Sep-19 03:33N 49°29' E 000°07'0 0.0
2016-Sep-19 02:33N 49°29' E 000°07'0 0.0
2016-Sep-19 00:33N 49°29' E 000°07'0 0.0
2016-Sep-18 19:33N 49°29' E 000°07'0 0.0
2016-Sep-18 15:33N 49°29' E 000°07'0 0.0
2016-Sep-18 14:33N 49°29' E 000°07'23 5.9
2016-Sep-18 10:33N 49°34' W 000°28'180 8.6
2016-Sep-17 13:34N 48°20' W 004°37'7 6.6
2016-Sep-17 12:34N 48°23' W 004°29'0 0.0
2016-Sep-17 10:33N 48°23' W 004°29'0 0.0
2016-Sep-17 09:33N 48°23' W 004°29'0 0.0
2016-Sep-17 08:33N 48°23' W 004°29'0 0.0
2016-Sep-17 07:34N 48°23' W 004°29'0 0.0
2016-Sep-17 05:33N 48°23' W 004°29'0 0.0
2016-Sep-17 04:33N 48°23' W 004°29'0 0.0
2016-Sep-17 00:33N 48°23' W 004°29'0 0.0
2016-Sep-16 17:33N 48°23' W 004°29'0 0.0
2016-Sep-16 15:33N 48°23' W 004°29'12 3.8
2016-Sep-16 12:33N 48°13' W 004°37'  

Dump ship's entire track history